Time;durP1;ratioP1;P1;durP2;ratioP2;P2;SDS_P1;SDS_P2;PMS_P1;PMS_P2;Temp;Humidity;BMP_temperature;BMP_pressure;BME280_temperature;BME280_humidity;BME280_pressure;Samples;Min_cycle;Max_cycle;Signal;HPM_P1;HPM_P2
2024/01/18 00:02:59;;;;;;;;;;;;;;;21.62;27.31;93084.16;10471142;28;3193;-65
2024/01/18 00:07:59;;;;;;;;;;;;;;;21.62;27.39;93084.94;10469648;28;2938;-66
2024/01/18 00:13:00;;;;;;;;;;;;;;;21.61;27.45;93085.28;10475096;28;3052;-65
2024/01/18 00:18:00;;;;;;;;;;;;;;;21.58;27.48;93093.84;10474188;28;3020;-65
2024/01/18 00:23:00;;;;;;;;;;;;;;;21.57;27.70;93097.63;10475209;28;3037;-65
2024/01/18 00:28:00;;;;;;;;;;;;;;;21.56;27.53;93096.06;10464283;28;2931;-65
2024/01/18 00:33:01;;;;;;;;;;;;;;;21.53;27.78;93099.41;10470000;28;2992;-65
2024/01/18 00:38:01;;;;;;;;;;;;;;;21.50;27.98;93105.34;10465193;28;2977;-64
2024/01/18 00:43:01;;;;;;;;;;;;;;;21.50;27.68;93110.63;10469923;28;3025;-64
2024/01/18 00:48:02;;;;;;;;;;;;;;;21.49;27.97;93109.13;10468277;28;2995;-65
2024/01/18 00:53:02;;;;;;;;;;;;;;;21.49;27.87;93109.13;10463295;28;3202;-65
2024/01/18 00:58:03;;;;;;;;;;;;;;;21.46;27.85;93115.81;10468153;28;2962;-65
2024/01/18 01:03:03;;;;;;;;;;;;;;;21.45;27.66;93124.81;10482781;28;2889;-65
2024/01/18 01:08:04;;;;;;;;;;;;;;;21.43;27.63;93121.03;10469442;28;2898;-64
2024/01/18 01:13:04;;;;;;;;;;;;;;;21.42;27.37;93114.22;10472058;28;2913;-65
2024/01/18 01:18:04;;;;;;;;;;;;;;;21.38;27.45;93119.41;10467981;28;3016;-64
2024/01/18 01:23:05;;;;;;;;;;;;;;;21.41;27.33;93123.22;10448664;28;3029;-64
2024/01/18 01:28:05;;;;;;;;;;;;;;;21.40;27.23;93121.69;10466907;28;3065;-65
2024/01/18 01:33:05;;;;;;;;;;;;;;;21.39;27.47;93123.56;10497542;28;2847;-65
2024/01/18 01:38:06;;;;;;;;;;;;;;;21.39;27.53;93122.81;10464339;28;3068;-64
2024/01/18 01:43:06;;;;;;;;;;;;;;;21.39;27.51;93128.06;10465227;28;2961;-65
2024/01/18 01:48:06;;;;;;;;;;;;;;;21.38;27.38;93126.53;10462847;28;2946;-65
2024/01/18 01:53:09;;;;;;;;;;;;;;;21.38;27.58;93129.16;10465978;28;2977;-65
2024/01/18 01:58:13;;;;;;;;;;;;;;;21.39;27.59;93115.66;10466005;28;2858;-64
2024/01/18 02:03:13;;;;;;;;;;;;;;;21.39;27.46;93120.19;10502696;28;2997;-64
2024/01/18 02:08:14;;;;;;;;;;;;;;;21.39;27.80;93117.53;10473358;28;2925;-65
2024/01/18 02:13:14;;;;;;;;;;;;;;;21.39;27.58;93117.53;10476454;28;2946;-65
2024/01/18 02:18:14;;;;;;;;;;;;;;;21.39;27.58;93125.44;10468820;28;2854;-65
2024/01/18 02:23:15;;;;;;;;;;;;;;;21.39;27.40;93123.56;10490152;28;2841;-64
2024/01/18 02:28:15;;;;;;;;;;;;;;;21.38;27.76;93118.63;10473864;28;2879;-65
2024/01/18 02:33:16;;;;;;;;;;;;;;;21.38;27.47;93113.34;10474830;28;2810;-65
2024/01/18 02:38:16;;;;;;;;;;;;;;;21.37;27.50;93107.31;10470469;28;3024;-66
2024/01/18 02:43:16;;;;;;;;;;;;;;;21.38;27.67;93097.56;10489136;28;2905;-66
2024/01/18 02:48:17;;;;;;;;;;;;;;;21.37;27.73;93106.56;10473586;28;2846;-63
2024/01/18 02:53:20;;;;;;;;;;;;;;;21.38;27.63;93105.47;10472990;28;3063;-66
2024/01/18 02:58:20;;;;;;;;;;;;;;;21.38;27.79;93113.34;10471293;28;2926;-65
2024/01/18 03:03:20;;;;;;;;;;;;;;;21.38;27.82;93116.00;10472880;28;3014;-63
2024/01/18 03:08:21;;;;;;;;;;;;;;;21.36;27.61;93116.34;10473791;28;3169;-64
2024/01/18 03:13:21;;;;;;;;;;;;;;;21.37;27.66;93111.84;10468248;28;3060;-64
2024/01/18 03:18:21;;;;;;;;;;;;;;;21.37;27.79;93106.56;10475819;28;3240;-63
2024/01/18 03:23:21;;;;;;;;;;;;;;;21.36;27.61;93099.75;10473282;28;2946;-64
2024/01/18 03:28:22;;;;;;;;;;;;;;;21.36;27.68;93105.81;10471124;28;2934;-64
2024/01/18 03:33:22;;;;;;;;;;;;;;;21.36;27.76;93112.94;10470869;28;2977;-63
2024/01/18 03:38:22;;;;;;;;;;;;;;;21.38;27.29;93108.09;10467191;28;3325;-63
2024/01/18 03:43:22;;;;;;;;;;;;;;;21.37;27.56;93107.31;10471452;28;3035;-63
2024/01/18 03:48:23;;;;;;;;;;;;;;;21.37;27.66;93102.03;10501389;28;2941;-65
2024/01/18 03:53:25;;;;;;;;;;;;;;;21.37;27.61;93112.59;10468277;28;3096;-66
2024/01/18 03:58:25;;;;;;;;;;;;;;;21.37;27.85;93106.56;10473624;28;3012;-65
2024/01/18 04:03:26;;;;;;;;;;;;;;;21.37;27.66;93106.56;10483081;28;3147;-65
2024/01/18 04:08:26;;;;;;;;;;;;;;;21.38;27.66;93102.81;10469982;28;2972;-65
2024/01/18 04:13:26;;;;;;;;;;;;;;;21.37;27.76;93111.84;10470724;28;2751;-65
2024/01/18 04:18:29;;;;;;;;;;;;;;;21.37;27.48;93117.13;10470080;28;3052;-66
2024/01/18 04:23:30;;;;;;;;;;;;;;;21.38;27.81;93121.25;10467346;28;2894;-65
2024/01/18 04:28:30;;;;;;;;;;;;;;;21.37;27.87;93117.84;10467842;28;2933;-65
2024/01/18 04:33:31;;;;;;;;;;;;;;;21.37;27.76;93112.59;10472417;28;3046;-65
2024/01/18 04:38:31;;;;;;;;;;;;;;;21.37;27.76;93114.47;10495729;28;2989;-63
2024/01/18 04:43:32;;;;;;;;;;;;;;;21.36;27.78;93105.81;10471760;28;3004;-64
2024/01/18 04:48:32;;;;;;;;;;;;;;;21.36;27.74;93111.06;10464432;28;3095;-64
2024/01/18 04:53:32;;;;;;;;;;;;;;;21.37;27.83;93115.22;10473399;28;2870;-63
2024/01/18 04:58:32;;;;;;;;;;;;;;;21.36;27.96;93115.56;10469957;28;2895;-64
2024/01/18 05:03:33;;;;;;;;;;;;;;;21.37;27.77;93114.47;10462034;28;2897;-66
2024/01/18 05:08:33;;;;;;;;;;;;;;;21.37;27.96;93111.84;10465895;28;2977;-65
2024/01/18 05:13:35;;;;;;;;;;;;;;;21.36;27.81;93110.31;10465574;28;3227;-65
2024/01/18 05:18:36;;;;;;;;;;;;;;;21.37;27.75;93111.84;10462176;28;2974;-67
2024/01/18 05:23:36;;;;;;;;;;;;;;;21.37;27.70;93123.13;10466324;28;2977;-64
2024/01/18 05:28:37;;;;;;;;;;;;;;;21.37;27.94;93109.22;10464081;28;2977;-65
2024/01/18 05:33:37;;;;;;;;;;;;;;;21.37;27.94;93111.84;10459771;28;2931;-64
2024/01/18 05:38:37;;;;;;;;;;;;;;;21.33;27.74;93116.28;10465613;28;3028;-61
2024/01/18 05:43:38;;;;;;;;;;;;;;;21.34;27.57;93117.78;10466644;28;2961;-62
2024/01/18 05:48:38;;;;;;;;;;;;;;;21.35;27.68;93114.81;10463936;28;2874;-64
2024/01/18 05:53:38;;;;;;;;;;;;;;;21.36;28.12;93123.47;10463206;28;2948;-65
2024/01/18 05:58:39;;;;;;;;;;;;;;;21.35;28.15;93121.97;10466727;28;3000;-65
2024/01/18 06:03:39;;;;;;;;;;;;;;;21.36;28.12;93115.56;10466011;28;2988;-63
2024/01/18 06:08:39;;;;;;;;;;;;;;;21.36;28.16;93120.84;10461816;28;3055;-64
2024/01/18 06:13:40;;;;;;;;;;;;;;;21.36;28.03;93120.84;10464530;28;3036;-64
2024/01/18 06:18:42;;;;;;;;;;;;;;;21.36;27.90;93118.22;10466070;28;2901;-63
2024/01/18 06:23:43;;;;;;;;;;;;;;;21.35;27.98;93104.25;10462478;28;2929;-63
2024/01/18 06:28:45;;;;;;;;;;;;;;;21.37;27.89;93111.84;10495343;28;3047;-63
2024/01/18 06:33:46;;;;;;;;;;;;;;;21.37;28.06;93112.59;10494870;28;2996;-63
2024/01/18 06:38:46;;;;;;;;;;;;;;;21.36;28.10;93110.31;10465964;28;2962;-63
2024/01/18 06:43:48;;;;;;;;;;;;;;;21.37;28.09;93103.94;10463980;28;2989;-63
2024/01/18 06:48:57;;;;;;;;;;;;;;;21.35;28.12;93103.50;10471972;28;2938;-63
2024/01/18 06:53:58;;;;;;;;;;;;;;;21.36;28.13;93099.75;10472048;28;2945;-62
2024/01/18 06:58:59;;;;;;;;;;;;;;;21.36;28.23;93110.31;10475987;28;2794;-62
2024/01/18 07:04:00;;;;;;;;;;;;;;;21.35;28.05;93117.44;10466310;28;2973;-63
2024/01/18 07:09:01;;;;;;;;;;;;;;;21.34;28.30;93109.88;10484680;28;2796;-63
2024/01/18 07:14:01;;;;;;;;;;;;;;;21.34;27.89;93115.91;10470796;28;2846;-63
2024/01/18 07:19:01;;;;;;;;;;;;;;;21.34;28.13;93110.66;10497834;28;2906;-64
2024/01/18 07:24:01;;;;;;;;;;;;;;;21.33;28.10;93103.09;10470786;28;3002;-64
2024/01/18 07:29:02;;;;;;;;;;;;;;;21.33;28.18;93106.47;10472168;28;2957;-63
2024/01/18 07:34:02;;;;;;;;;;;;;;;21.32;28.33;93101.56;10469463;28;3053;-63
2024/01/18 07:39:02;;;;;;;;;;;;;;;21.33;28.26;93103.09;10465417;28;2965;-63
2024/01/18 07:44:03;;;;;;;;;;;;;;;21.34;27.97;93094.06;10468484;28;2985;-63
2024/01/18 07:49:03;;;;;;;;;;;;;;;21.33;28.32;93097.81;10467728;28;3063;-64
2024/01/18 07:54:04;;;;;;;;;;;;;;;21.32;28.28;93096.28;10468179;28;3044;-64
2024/01/18 07:59:04;;;;;;;;;;;;;;;21.32;28.14;93096.28;10484567;28;2933;-64
2024/01/18 08:04:05;;;;;;;;;;;;;;;21.32;28.26;93098.91;10472263;28;2956;-64
2024/01/18 08:09:05;;;;;;;;;;;;;;;21.32;28.06;93102.31;10470110;28;2997;-64
2024/01/18 08:14:05;;;;;;;;;;;;;;;21.31;28.20;93100.03;10465682;28;3016;-64
2024/01/18 08:19:07;;;;;;;;;;;;;;;21.29;28.20;93094.34;10471974;28;3049;-64
2024/01/18 08:24:07;;;;;;;;;;;;;;;21.31;28.22;93100.78;10463746;28;3028;-62
2024/01/18 08:29:07;;;;;;;;;;;;;;;21.32;28.16;93101.56;10470206;28;2961;-64
2024/01/18 08:34:08;;;;;;;;;;;;;;;21.31;28.04;93100.03;10498347;28;3181;-63
2024/01/18 08:39:10;;;;;;;;;;;;;;;21.32;28.16;93099.69;10462040;28;3024;-63
2024/01/18 08:44:11;;;;;;;;;;;;;;;21.30;28.08;93095.84;10469139;28;2922;-64
2024/01/18 08:49:11;;;;;;;;;;;;;;;21.29;28.22;93105.63;10463054;28;3111;-61
2024/01/18 08:54:11;;;;;;;;;;;;;;;21.32;28.39;93104.19;10469959;28;2987;-61
2024/01/18 08:59:11;;;;;;;;;;;;;;;21.33;28.04;93106.47;10466619;28;2987;-61
2024/01/18 09:04:12;;;;;;;;;;;;;;;21.32;28.13;93104.97;10466685;28;2949;-64
2024/01/18 09:09:13;;;;;;;;;;;;;;;21.32;28.58;93115.50;10462775;28;2830;-64
2024/01/18 09:14:13;;;;;;;;;;;;;;;21.31;28.56;93118.47;10468549;28;2861;-63
2024/01/18 09:19:14;;;;;;;;;;;;;;;21.33;28.35;93126.81;10460030;28;3064;-62
2024/01/18 09:24:14;;;;;;;;;;;;;;;21.33;28.49;93126.81;10477124;28;3218;-63
2024/01/18 09:29:14;;;;;;;;;;;;;;;21.35;28.24;93135.13;10456724;28;3021;-64
2024/01/18 09:34:15;;;;;;;;;;;;;;;21.35;28.31;93153.59;10462226;28;3079;-64
2024/01/18 09:39:17;;;;;;;;;;;;;;;21.34;28.53;93163.34;10462070;28;2993;-64
2024/01/18 09:44:30;;;;;;;;;;;;;;;21.35;28.61;93164.13;10463204;28;2972;-64
2024/01/18 09:49:31;;;;;;;;;;;;;;;21.34;28.48;93159.94;10490181;28;3016;-64
2024/01/18 09:54:31;;;;;;;;;;;;;;;21.36;28.59;93163.78;10457350;28;3060;-64
2024/01/18 09:59:32;;;;;;;;;;;;;;;21.34;28.48;93155.44;10471239;28;2953;-63
2024/01/18 10:04:32;;;;;;;;;;;;;;;21.32;28.69;93152.38;10463017;28;3171;-64
2024/01/18 10:09:32;;;;;;;;;;;;;;;21.32;28.84;93147.13;10465690;28;2953;-63
2024/01/18 10:14:43;;;;;;;;;;;;;;;21.31;28.84;93147.47;10481870;28;3010;-64
2024/01/18 10:19:43;;;;;;;;;;;;;;;21.33;28.45;93146.00;10463339;28;2996;-64
2024/01/18 10:24:44;;;;;;;;;;;;;;;21.31;28.73;93131.66;10471884;28;3104;-64
2024/01/18 10:29:44;;;;;;;;;;;;;;;21.32;28.58;93130.53;10467830;28;2953;-63
2024/01/18 10:34:46;;;;;;;;;;;;;;;21.31;28.61;93124.50;10473345;28;2895;-63
2024/01/18 10:39:47;;;;;;;;;;;;;;;21.31;28.64;93121.13;10468044;28;3090;-64
2024/01/18 10:44:50;;;;;;;;;;;;;;;21.30;28.57;93111.66;10467325;28;2850;-63
2024/01/18 10:49:50;;;;;;;;;;;;;;;21.32;28.56;93109.47;10473113;28;3005;-63
2024/01/18 10:54:50;;;;;;;;;;;;;;;21.30;28.45;93117.72;10506541;28;3083;-63
2024/01/18 10:59:52;;;;;;;;;;;;;;;21.31;28.70;93118.47;10473072;28;3040;-63
2024/01/18 11:04:52;;;;;;;;;;;;;;;21.29;28.89;93110.16;10471881;28;3056;-62
2024/01/18 11:09:52;;;;;;;;;;;;;;;21.30;29.05;93120.34;10469556;28;3135;-64
2024/01/18 11:14:52;;;;;;;;;;;;;;;21.31;28.95;93121.84;10475367;28;2929;-63
2024/01/18 11:19:55;;;;;;;;;;;;;;;21.34;28.79;93123.06;10468448;28;2942;-63
2024/01/18 11:25:06;;;;;;;;;;;;;;;21.29;28.78;93126.69;10470723;28;3325;-63
2024/01/18 11:30:26;;;;;;;;;;;;;;;21.29;28.95;93110.16;10499622;28;3005;-63
2024/01/18 11:35:26;;;;;;;;;;;;;;;21.30;29.11;93104.53;10459290;28;2976;-66
2024/01/18 11:40:27;;;;;;;;;;;;;;;21.33;29.09;93103.84;10471317;28;2896;-61
2024/01/18 11:45:27;;;;;;;;;;;;;;;21.32;29.13;93106.81;10465556;28;2965;-64
2024/01/18 11:50:27;;;;;;;;;;;;;;;21.35;29.15;93114.06;10503095;28;3024;-62
2024/01/18 11:55:31;;;;;;;;;;;;;;;21.36;29.23;93103.16;10471547;28;2790;-62
2024/01/18 12:00:31;;;;;;;;;;;;;;;21.39;29.55;93104.38;10466514;28;3183;-62
2024/01/18 12:05:32;;;;;;;;;;;;;;;21.41;29.76;93102.16;10472393;28;2954;-61
2024/01/18 12:10:34;;;;;;;;;;;;;;;21.42;29.74;93101.81;10465346;28;3063;-62
2024/01/18 12:15:34;;;;;;;;;;;;;;;21.43;29.67;93111.22;10464717;28;3168;-62
2024/01/18 12:20:34;;;;;;;;;;;;;;;21.44;29.53;93107.50;10494406;28;3049;-63
2024/01/18 12:25:35;;;;;;;;;;;;;;;21.45;29.62;93098.47;10471563;28;2889;-62
2024/01/18 12:30:35;;;;;;;;;;;;;;;21.43;29.71;93094.66;10474183;28;2992;-62
2024/01/18 12:35:36;;;;;;;;;;;;;;;21.43;29.34;93092.03;10467130;28;3005;-62
2024/01/18 12:40:36;;;;;;;;;;;;;;;21.43;29.41;93105.22;10467091;28;2985;-62
2024/01/18 12:45:36;;;;;;;;;;;;;;;21.39;29.57;93101.72;10466287;28;2958;-63
2024/01/18 12:50:37;;;;;;;;;;;;;;;21.44;29.03;93107.50;10470084;28;3008;-62
2024/01/18 12:55:37;;;;;;;;;;;;;;;21.39;29.34;93104.38;10469811;28;2951;-62
2024/01/18 13:00:38;;;;;;;;;;;;;;;21.38;29.72;93093.06;10469219;28;2852;-61
2024/01/18 13:05:42;;;;;;;;;;;;;;;21.41;29.16;93110.06;10468933;28;2955;-63
2024/01/18 13:10:42;;;;;;;;;;;;;;;21.37;29.38;93111.84;10463939;28;3025;-62
2024/01/18 13:15:43;;;;;;;;;;;;;;;21.38;29.17;93108.88;10498309;28;2986;-62
2024/01/18 13:20:43;;;;;;;;;;;;;;;21.39;29.07;93117.53;10468997;28;3446;-63
2024/01/18 13:25:44;;;;;;;;;;;;;;;21.38;29.24;93126.53;10470843;28;3283;-62
2024/01/18 13:30:46;;;;;;;;;;;;;;;21.42;29.15;93127.38;10467593;28;2785;-63
2024/01/18 13:35:47;;;;;;;;;;;;;;;21.37;29.06;93127.66;10461817;28;2957;-63
2024/01/18 13:40:47;;;;;;;;;;;;;;;21.39;29.10;93138.63;10468976;28;2834;-63
2024/01/18 13:45:47;;;;;;;;;;;;;;;21.38;29.27;93139.72;10460729;28;2910;-63
2024/01/18 13:50:48;;;;;;;;;;;;;;;21.38;28.78;93152.88;10475107;28;2964;-63
2024/01/18 13:55:48;;;;;;;;;;;;;;;21.42;28.84;93159.78;10465743;28;3074;-63
2024/01/18 14:00:48;;;;;;;;;;;;;;;21.41;29.05;93178.56;10468674;28;3008;-63
2024/01/18 14:05:49;;;;;;;;;;;;;;;21.39;28.88;93170.97;10465037;28;2973;-63
2024/01/18 14:10:49;;;;;;;;;;;;;;;21.40;29.14;93195.47;10464962;28;3052;-63
2024/01/18 14:15:50;;;;;;;;;;;;;;;21.41;28.84;93224.13;10463131;28;2889;-63
2024/01/18 14:20:51;;;;;;;;;;;;;;;21.41;29.34;93281.34;10466888;28;2958;-63
2024/01/18 14:25:51;;;;;;;;;;;;;;;21.39;29.36;93315.94;10470754;28;2984;-62
2024/01/18 14:30:52;;;;;;;;;;;;;;;21.37;29.80;93317.38;10445146;28;2993;-63
2024/01/18 14:35:52;;;;;;;;;;;;;;;21.39;29.49;93323.09;10463963;28;2927;-63
2024/01/18 14:40:52;;;;;;;;;;;;;;;21.35;29.72;93348.59;10470450;28;3046;-63
2024/01/18 14:45:52;;;;;;;;;;;;;;;21.37;29.49;93367.47;10472784;28;3024;-63
2024/01/18 14:50:53;;;;;;;;;;;;;;;21.40;29.30;93395.75;10471638;28;3004;-63
2024/01/18 14:55:53;;;;;;;;;;;;;;;21.38;29.61;93411.13;10467729;28;3033;-63
2024/01/18 15:00:53;;;;;;;;;;;;;;;21.35;29.63;93420.47;10463726;28;2977;-63
2024/01/18 15:05:53;;;;;;;;;;;;;;;21.39;29.54;93441.69;10470917;28;3024;-63
2024/01/18 15:10:54;;;;;;;;;;;;;;;21.39;29.35;93457.50;10474688;28;2862;-63
2024/01/18 15:15:54;;;;;;;;;;;;;;;21.39;29.15;93483.84;10471269;28;3035;-63
2024/01/18 15:20:54;;;;;;;;;;;;;;;21.39;29.29;93499.66;10475045;28;2938;-62
2024/01/18 15:25:55;;;;;;;;;;;;;;;21.38;29.48;93530.50;10474408;28;2805;-63
2024/01/18 15:30:55;;;;;;;;;;;;;;;21.42;29.25;93555.09;10455573;28;3147;-63
2024/01/18 15:35:56;;;;;;;;;;;;;;;21.41;29.46;93587.06;10472769;28;3039;-63
2024/01/18 15:40:56;;;;;;;;;;;;;;;21.37;29.57;93613.28;10471492;28;2825;-63
2024/01/18 15:45:56;;;;;;;;;;;;;;;21.37;29.51;93631.00;10476208;28;2885;-63
2024/01/18 15:50:57;;;;;;;;;;;;;;;21.36;29.20;93646.03;10475229;28;3036;-63
2024/01/18 15:55:57;;;;;;;;;;;;;;;21.39;29.29;93678.88;10476384;28;2807;-63
2024/01/18 16:00:58;;;;;;;;;;;;;;;21.40;29.29;93706.75;10472802;28;3001;-63
2024/01/18 16:05:59;;;;;;;;;;;;;;;21.42;29.20;93730.91;10469216;28;2917;-61
2024/01/18 16:10:59;;;;;;;;;;;;;;;21.40;29.21;93747.06;10469091;28;2953;-63
2024/01/18 16:15:59;;;;;;;;;;;;;;;21.41;29.01;93769.69;10464953;28;2968;-63
2024/01/18 16:20:59;;;;;;;;;;;;;;;21.39;29.47;93789.56;10469356;28;2874;-63
2024/01/18 16:26:00;;;;;;;;;;;;;;;21.40;29.26;93799.00;10472604;28;2873;-65
2024/01/18 16:31:00;;;;;;;;;;;;;;;21.46;29.09;93827.47;10469884;28;2877;-64
2024/01/18 16:36:00;;;;;;;;;;;;;;;21.52;28.83;93849.91;10467608;28;3046;-65
2024/01/18 16:41:01;;;;;;;;;;;;;;;21.56;28.92;93871.09;10469165;28;3068;-63
2024/01/18 16:46:02;;;;;;;;;;;;;;;21.60;28.76;93893.09;10477736;28;3171;-65
2024/01/18 16:51:02;;;;;;;;;;;;;;;21.65;28.69;93917.41;10471968;28;2856;-64
2024/01/18 16:56:03;;;;;;;;;;;;;;;21.71;28.66;93945.13;10473390;28;2985;-64
2024/01/18 17:01:03;;;;;;;;;;;;;;;21.74;28.80;93964.81;10469461;28;2898;-64
2024/01/18 17:06:03;;;;;;;;;;;;;;;21.74;28.95;93972.72;10470124;28;3007;-65
2024/01/18 17:11:04;;;;;;;;;;;;;;;21.78;28.56;94005.25;10470247;28;3000;-64
2024/01/18 17:16:04;;;;;;;;;;;;;;;21.77;28.74;94019.53;10467165;28;3111;-64
2024/01/18 17:21:04;;;;;;;;;;;;;;;21.81;28.61;94033.63;10469298;28;3070;-65
2024/01/18 17:26:04;;;;;;;;;;;;;;;21.81;28.71;94055.53;10468036;28;2941;-64
2024/01/18 17:31:05;;;;;;;;;;;;;;;21.84;28.56;94072.59;10465576;28;2998;-64
2024/01/18 17:36:06;;;;;;;;;;;;;;;21.85;28.78;94100.50;10457963;28;2917;-64
2024/01/18 17:41:06;;;;;;;;;;;;;;;21.86;28.55;94117.88;10500934;28;3066;-65
2024/01/18 17:46:06;;;;;;;;;;;;;;;21.85;28.71;94145.34;10461576;28;3150;-64
2024/01/18 17:51:07;;;;;;;;;;;;;;;21.86;28.56;94163.47;10473907;28;2919;-64
2024/01/18 17:56:07;;;;;;;;;;;;;;;21.86;28.61;94181.19;10469527;28;3136;-63
2024/01/18 18:01:08;;;;;;;;;;;;;;;21.85;28.68;94195.44;10469202;28;3314;-64
2024/01/18 18:06:09;;;;;;;;;;;;;;;21.87;28.60;94206.44;10467313;28;2831;-63
2024/01/18 18:11:09;;;;;;;;;;;;;;;21.86;28.59;94215.47;10466656;28;2941;-62
2024/01/18 18:16:09;;;;;;;;;;;;;;;21.88;28.52;94221.19;10465746;28;2973;-61
2024/01/18 18:21:10;;;;;;;;;;;;;;;21.93;28.56;94242.13;10466511;28;2985;-62
2024/01/18 18:26:11;;;;;;;;;;;;;;;21.94;28.39;94264.78;10465839;28;2791;-64
2024/01/18 18:31:11;;;;;;;;;;;;;;;21.94;28.73;94267.41;10465687;28;2975;-63
2024/01/18 18:36:11;;;;;;;;;;;;;;;21.96;28.62;94298.75;10466775;28;2933;-62
2024/01/18 18:41:12;;;;;;;;;;;;;;;21.95;28.57;94311.16;10470100;28;2845;-62
2024/01/18 18:46:12;;;;;;;;;;;;;;;21.93;28.65;94342.38;10473325;28;2937;-61
2024/01/18 18:51:12;;;;;;;;;;;;;;;21.94;28.71;94359.75;10476103;28;2878;-63
2024/01/18 18:56:13;;;;;;;;;;;;;;;21.98;28.69;94371.22;10472716;28;2903;-67
2024/01/18 19:01:13;;;;;;;;;;;;;;;21.94;28.98;94375.59;10498717;28;2925;-62
2024/01/18 19:06:13;;;;;;;;;;;;;;;21.96;28.56;94401.66;10471138;28;2904;-62
2024/01/18 19:11:14;;;;;;;;;;;;;;;21.93;28.65;94408.31;10468834;28;3025;-61
2024/01/18 19:16:14;;;;;;;;;;;;;;;21.90;28.57;94435.34;10467242;28;3176;-61
2024/01/18 19:21:14;;;;;;;;;;;;;;;21.88;28.75;94440.16;10474523;28;3017;-66
2024/01/18 19:26:15;;;;;;;;;;;;;;;21.95;28.79;94466.81;10472398;28;3150;-65
2024/01/18 19:31:15;;;;;;;;;;;;;;;22.00;28.89;94479.88;10471878;28;2989;-64
2024/01/18 19:36:15;;;;;;;;;;;;;;;22.03;28.42;94483.75;10472945;28;3032;-64
2024/01/18 19:41:16;;;;;;;;;;;;;;;22.03;28.98;94489.03;10467477;28;2900;-66
2024/01/18 19:46:16;;;;;;;;;;;;;;;22.00;28.97;94506.25;10464254;28;3038;-65
2024/01/18 19:51:17;;;;;;;;;;;;;;;22.01;28.83;94515.72;10467176;28;2970;-66
2024/01/18 19:56:17;;;;;;;;;;;;;;;22.03;28.47;94515.44;10472410;28;2894;-65
2024/01/18 20:01:17;;;;;;;;;;;;;;;22.02;28.35;94525.19;10496029;27;3136;-65
2024/01/18 20:06:18;;;;;;;;;;;;;;;22.03;28.38;94541.81;10468127;28;2860;-65
2024/01/18 20:11:18;;;;;;;;;;;;;;;22.07;28.78;94559.31;10496581;27;2996;-65
2024/01/18 20:16:18;;;;;;;;;;;;;;;22.08;28.67;94568.81;10496771;27;3077;-66
2024/01/18 20:21:18;;;;;;;;;;;;;;;22.06;28.35;94578.91;10484629;28;3124;-66
2024/01/18 20:26:19;;;;;;;;;;;;;;;22.04;28.40;94591.63;10503734;27;3083;-66
2024/01/18 20:31:19;;;;;;;;;;;;;;;22.06;28.37;94609.78;10472530;28;3114;-66
2024/01/18 20:36:19;;;;;;;;;;;;;;;22.07;28.33;94608.72;10481599;28;2475;-66
2024/01/18 20:41:20;;;;;;;;;;;;;;;22.07;28.06;94616.63;10485118;28;1906;-66
2024/01/18 20:46:20;;;;;;;;;;;;;;;22.08;28.65;94628.72;10482480;28;1525;-67
2024/01/18 20:51:20;;;;;;;;;;;;;;;22.07;29.30;94640.38;10485733;28;2260;-69
2024/01/18 20:56:21;;;;;;;;;;;;;;;22.08;28.20;94645.34;10483474;28;2383;-66
2024/01/18 21:01:21;;;;;;;;;;;;;;;22.07;27.91;94656.97;10485699;28;1914;-64
2024/01/18 21:06:21;;;;;;;;;;;;;;;22.10;28.57;94668.78;10481145;28;1550;-67
2024/01/18 21:11:21;;;;;;;;;;;;;;;22.08;27.97;94673.59;10478869;28;1654;-67
2024/01/18 21:16:22;;;;;;;;;;;;;;;22.11;27.70;94689.59;10494613;28;1528;-67
2024/01/18 21:21:22;;;;;;;;;;;;;;;22.06;28.42;94697.66;10475321;28;1967;-67
2024/01/18 21:26:23;;;;;;;;;;;;;;;22.11;28.18;94707.28;10484418;28;2224;-67
2024/01/18 21:31:23;;;;;;;;;;;;;;;22.09;28.23;94720.78;10482854;28;1545;-68
2024/01/18 21:36:23;;;;;;;;;;;;;;;22.05;28.22;94730.41;10481031;28;2443;-68
2024/01/18 21:41:24;;;;;;;;;;;;;;;22.09;28.30;94741.88;10483593;28;1898;-68
2024/01/18 21:46:24;;;;;;;;;;;;;;;22.03;28.36;94745.00;10481108;28;1458;-68
2024/01/18 21:51:25;;;;;;;;;;;;;;;22.02;27.71;94760.06;10485164;28;1490;-68
2024/01/18 21:56:26;;;;;;;;;;;;;;;21.98;28.36;94761.75;10485280;28;2924;-64
2024/01/18 22:01:26;;;;;;;;;;;;;;;21.91;28.17;94774.59;10470559;28;3080;-68
2024/01/18 22:06:26;;;;;;;;;;;;;;;21.84;28.19;94785.56;10456588;28;2915;-68
2024/01/18 22:11:26;;;;;;;;;;;;;;;21.78;28.30;94799.19;10463286;28;2882;-68
2024/01/18 22:16:27;;;;;;;;;;;;;;;21.72;28.69;94795.91;10473147;28;3031;-68
2024/01/18 22:21:27;;;;;;;;;;;;;;;21.72;28.71;94800.41;10475400;28;2970;-68
2024/01/18 22:26:27;;;;;;;;;;;;;;;21.65;28.85;94800.84;10504609;27;2967;-67
2024/01/18 22:31:28;;;;;;;;;;;;;;;21.61;28.94;94805.16;10477055;28;3014;-67
2024/01/18 22:36:28;;;;;;;;;;;;;;;21.57;29.43;94821.88;10475884;28;3003;-67
2024/01/18 22:41:28;;;;;;;;;;;;;;;21.58;29.11;94826.06;10476035;28;2867;-67
2024/01/18 22:46:30;;;;;;;;;;;;;;;21.56;28.82;94834.28;10469407;28;3020;-67
2024/01/18 22:51:31;;;;;;;;;;;;;;;21.55;29.21;94842.50;10476643;28;2961;-68
2024/01/18 22:56:31;;;;;;;;;;;;;;;21.51;29.26;94837.06;10473826;28;3080;-67
2024/01/18 23:01:31;;;;;;;;;;;;;;;21.49;28.94;94838.44;10472162;28;3041;-68
2024/01/18 23:06:32;;;;;;;;;;;;;;;21.47;29.19;94845.88;10478629;28;2892;-67
2024/01/18 23:11:32;;;;;;;;;;;;;;;21.44;29.10;94849.09;10502656;28;2957;-67
2024/01/18 23:16:32;;;;;;;;;;;;;;;21.43;28.86;94858.09;10473983;28;2958;-68
2024/01/18 23:21:32;;;;;;;;;;;;;;;21.39;29.21;94849.97;10481132;28;2938;-67
2024/01/18 23:26:34;;;;;;;;;;;;;;;21.35;29.23;94864.09;10475323;28;3354;-67
2024/01/18 23:31:34;;;;;;;;;;;;;;;21.33;29.15;94868.88;10473726;28;2871;-67
2024/01/18 23:36:43;;;;;;;;;;;;;;;21.26;29.42;94871.13;10472863;28;3004;-66
2024/01/18 23:41:43;;;;;;;;;;;;;;;21.27;29.17;94873.47;10468308;28;2904;-68
2024/01/18 23:46:44;;;;;;;;;;;;;;;21.23;29.32;94887.53;10472110;28;2873;-67
2024/01/18 23:51:44;;;;;;;;;;;;;;;21.20;29.13;94893.41;10489336;28;2826;-68
2024/01/18 23:56:44;;;;;;;;;;;;;;;21.22;29.22;94901.81;10464220;28;2907;-68
